sensor_id;sensor_type;location;lat;lon;timestamp;P1;durP1;ratioP1;P2;durP2;ratioP2
70705;SDS011;59320;52.316;10.870;2024-02-21T00:00:07;21.83;;;5.50;;
70705;SDS011;59320;52.316;10.870;2024-02-21T00:02:38;22.42;;;6.57;;
70705;SDS011;59320;52.316;10.870;2024-02-21T00:05:05;15.82;;;5.85;;
70705;SDS011;59320;52.316;10.870;2024-02-21T00:07:33;16.05;;;6.47;;
70705;SDS011;59320;52.316;10.870;2024-02-21T00:10:00;17.08;;;5.85;;
70705;SDS011;59320;52.316;10.870;2024-02-21T00:12:27;23.10;;;6.88;;
70705;SDS011;59320;52.316;10.870;2024-02-21T00:14:54;21.45;;;7.38;;
70705;SDS011;59320;52.316;10.870;2024-02-21T00:17:21;20.02;;;6.93;;
70705;SDS011;59320;52.316;10.870;2024-02-21T00:19:50;19.83;;;7.63;;
70705;SDS011;59320;52.316;10.870;2024-02-21T00:22:17;22.88;;;7.10;;
70705;SDS011;59320;52.316;10.870;2024-02-21T00:24:44;23.10;;;7.20;;
70705;SDS011;59320;52.316;10.870;2024-02-21T00:27:11;24.70;;;7.22;;
70705;SDS011;59320;52.316;10.870;2024-02-21T00:29:39;21.52;;;8.27;;
70705;SDS011;59320;52.316;10.870;2024-02-21T00:32:06;24.58;;;8.00;;
70705;SDS011;59320;52.316;10.870;2024-02-21T00:34:33;22.05;;;7.50;;
70705;SDS011;59320;52.316;10.870;2024-02-21T00:37:02;15.45;;;7.45;;
70705;SDS011;59320;52.316;10.870;2024-02-21T00:39:30;16.20;;;6.95;;
70705;SDS011;59320;52.316;10.870;2024-02-21T00:41:58;14.18;;;6.03;;
70705;SDS011;59320;52.316;10.870;2024-02-21T00:44:25;18.63;;;6.22;;
70705;SDS011;59320;52.316;10.870;2024-02-21T00:46:52;14.88;;;6.03;;
70705;SDS011;59320;52.316;10.870;2024-02-21T00:49:19;16.35;;;5.97;;
70705;SDS011;59320;52.316;10.870;2024-02-21T00:51:47;19.90;;;5.70;;
70705;SDS011;59320;52.316;10.870;2024-02-21T00:54:16;12.20;;;5.68;;
70705;SDS011;59320;52.316;10.870;2024-02-21T00:56:43;15.75;;;6.05;;
70705;SDS011;59320;52.316;10.870;2024-02-21T00:59:10;20.15;;;6.00;;
70705;SDS011;59320;52.316;10.870;2024-02-21T01:01:38;18.27;;;5.30;;
70705;SDS011;59320;52.316;10.870;2024-02-21T01:04:07;16.65;;;5.93;;
70705;SDS011;59320;52.316;10.870;2024-02-21T01:06:35;15.30;;;5.00;;
70705;SDS011;59320;52.316;10.870;2024-02-21T01:09:02;15.25;;;6.20;;
70705;SDS011;59320;52.316;10.870;2024-02-21T01:11:32;15.90;;;5.30;;
70705;SDS011;59320;52.316;10.870;2024-02-21T01:13:59;15.13;;;5.53;;
70705;SDS011;59320;52.316;10.870;2024-02-21T01:16:26;14.68;;;5.10;;
70705;SDS011;59320;52.316;10.870;2024-02-21T01:18:53;12.73;;;5.65;;
70705;SDS011;59320;52.316;10.870;2024-02-21T01:21:20;18.70;;;6.22;;
70705;SDS011;59320;52.316;10.870;2024-02-21T01:23:48;15.38;;;5.80;;
70705;SDS011;59320;52.316;10.870;2024-02-21T01:26:15;19.10;;;6.47;;
70705;SDS011;59320;52.316;10.870;2024-02-21T01:28:45;15.23;;;6.05;;
70705;SDS011;59320;52.316;10.870;2024-02-21T01:31:12;16.58;;;6.43;;
70705;SDS011;59320;52.316;10.870;2024-02-21T01:33:40;20.65;;;6.88;;
70705;SDS011;59320;52.316;10.870;2024-02-21T01:36:09;17.25;;;6.53;;
70705;SDS011;59320;52.316;10.870;2024-02-21T01:38:36;19.95;;;6.85;;
70705;SDS011;59320;52.316;10.870;2024-02-21T01:41:03;17.60;;;6.43;;
70705;SDS011;59320;52.316;10.870;2024-02-21T01:43:30;16.33;;;6.90;;
70705;SDS011;59320;52.316;10.870;2024-02-21T01:45:59;17.13;;;6.20;;
70705;SDS011;59320;52.316;10.870;2024-02-21T01:48:26;17.10;;;6.45;;
70705;SDS011;59320;52.316;10.870;2024-02-21T01:50:53;14.95;;;5.95;;
70705;SDS011;59320;52.316;10.870;2024-02-21T01:53:22;17.95;;;7.50;;
70705;SDS011;59320;52.316;10.870;2024-02-21T01:55:55;19.48;;;7.32;;
70705;SDS011;59320;52.316;10.870;2024-02-21T01:58:22;20.05;;;7.47;;
70705;SDS011;59320;52.316;10.870;2024-02-21T02:00:50;21.52;;;8.43;;
70705;SDS011;59320;52.316;10.870;2024-02-21T02:03:19;21.63;;;8.10;;
70705;SDS011;59320;52.316;10.870;2024-02-21T02:05:47;20.17;;;8.30;;
70705;SDS011;59320;52.316;10.870;2024-02-21T02:08:16;20.08;;;8.75;;
70705;SDS011;59320;52.316;10.870;2024-02-21T02:10:47;17.35;;;8.43;;
70705;SDS011;59320;52.316;10.870;2024-02-21T02:13:15;20.92;;;9.35;;
70705;SDS011;59320;52.316;10.870;2024-02-21T02:15:43;20.85;;;9.88;;
70705;SDS011;59320;52.316;10.870;2024-02-21T02:18:12;23.42;;;10.07;;
70705;SDS011;59320;52.316;10.870;2024-02-21T02:20:42;18.88;;;9.90;;
70705;SDS011;59320;52.316;10.870;2024-02-21T02:23:11;19.23;;;10.20;;
70705;SDS011;59320;52.316;10.870;2024-02-21T02:25:43;19.35;;;10.70;;
70705;SDS011;59320;52.316;10.870;2024-02-21T02:28:14;22.30;;;10.13;;
70705;SDS011;59320;52.316;10.870;2024-02-21T02:30:42;18.05;;;9.82;;
70705;SDS011;59320;52.316;10.870;2024-02-21T02:33:09;25.52;;;10.32;;
70705;SDS011;59320;52.316;10.870;2024-02-21T02:35:37;21.90;;;9.90;;
70705;SDS011;59320;52.316;10.870;2024-02-21T02:38:05;19.65;;;10.07;;
70705;SDS011;59320;52.316;10.870;2024-02-21T02:40:33;22.60;;;11.63;;
70705;SDS011;59320;52.316;10.870;2024-02-21T02:43:03;24.42;;;10.50;;
70705;SDS011;59320;52.316;10.870;2024-02-21T02:45:30;22.70;;;10.63;;
70705;SDS011;59320;52.316;10.870;2024-02-21T02:47:57;22.20;;;10.48;;
70705;SDS011;59320;52.316;10.870;2024-02-21T02:50:24;24.88;;;10.60;;
70705;SDS011;59320;52.316;10.870;2024-02-21T02:52:52;21.80;;;10.43;;
70705;SDS011;59320;52.316;10.870;2024-02-21T02:55:19;28.85;;;10.65;;
70705;SDS011;59320;52.316;10.870;2024-02-21T02:57:47;20.40;;;10.25;;
70705;SDS011;59320;52.316;10.870;2024-02-21T03:00:18;18.58;;;10.20;;
70705;SDS011;59320;52.316;10.870;2024-02-21T03:02:46;25.10;;;11.35;;
70705;SDS011;59320;52.316;10.870;2024-02-21T03:05:16;18.10;;;9.88;;
70705;SDS011;59320;52.316;10.870;2024-02-21T03:07:43;21.63;;;10.10;;
70705;SDS011;59320;52.316;10.870;2024-02-21T03:10:12;20.38;;;10.13;;
70705;SDS011;59320;52.316;10.870;2024-02-21T03:12:41;20.27;;;10.13;;
70705;SDS011;59320;52.316;10.870;2024-02-21T03:15:09;18.88;;;10.00;;
70705;SDS011;59320;52.316;10.870;2024-02-21T03:17:38;18.45;;;9.73;;
70705;SDS011;59320;52.316;10.870;2024-02-21T03:20:06;18.42;;;9.07;;
70705;SDS011;59320;52.316;10.870;2024-02-21T03:22:35;20.58;;;9.82;;
70705;SDS011;59320;52.316;10.870;2024-02-21T03:25:03;23.55;;;10.43;;
70705;SDS011;59320;52.316;10.870;2024-02-21T03:27:33;17.63;;;9.80;;
70705;SDS011;59320;52.316;10.870;2024-02-21T03:30:00;19.02;;;9.88;;
70705;SDS011;59320;52.316;10.870;2024-02-21T03:32:30;22.33;;;10.13;;
70705;SDS011;59320;52.316;10.870;2024-02-21T03:35:01;20.40;;;10.02;;
70705;SDS011;59320;52.316;10.870;2024-02-21T03:37:28;17.85;;;9.88;;
70705;SDS011;59320;52.316;10.870;2024-02-21T03:39:57;17.65;;;10.13;;
70705;SDS011;59320;52.316;10.870;2024-02-21T03:42:24;20.27;;;10.02;;
70705;SDS011;59320;52.316;10.870;2024-02-21T03:44:51;16.67;;;10.63;;
70705;SDS011;59320;52.316;10.870;2024-02-21T03:47:18;24.90;;;11.63;;
70705;SDS011;59320;52.316;10.870;2024-02-21T03:49:46;23.33;;;11.43;;
70705;SDS011;59320;52.316;10.870;2024-02-21T03:52:15;19.92;;;10.73;;
70705;SDS011;59320;52.316;10.870;2024-02-21T03:54:42;24.50;;;11.05;;
70705;SDS011;59320;52.316;10.870;2024-02-21T03:57:09;23.75;;;11.32;;
70705;SDS011;59320;52.316;10.870;2024-02-21T03:59:37;20.08;;;11.07;;
70705;SDS011;59320;52.316;10.870;2024-02-21T04:02:05;20.55;;;10.93;;
70705;SDS011;59320;52.316;10.870;2024-02-21T04:04:34;21.85;;;11.40;;
70705;SDS011;59320;52.316;10.870;2024-02-21T04:07:02;20.02;;;11.10;;
70705;SDS011;59320;52.316;10.870;2024-02-21T04:09:33;20.17;;;10.35;;
70705;SDS011;59320;52.316;10.870;2024-02-21T04:12:00;22.52;;;11.00;;
70705;SDS011;59320;52.316;10.870;2024-02-21T04:14:27;21.63;;;10.85;;
70705;SDS011;59320;52.316;10.870;2024-02-21T04:16:54;20.17;;;10.50;;
70705;SDS011;59320;52.316;10.870;2024-02-21T04:19:22;20.40;;;10.57;;
70705;SDS011;59320;52.316;10.870;2024-02-21T04:21:49;17.50;;;11.18;;
70705;SDS011;59320;52.316;10.870;2024-02-21T04:24:16;21.73;;;11.02;;
70705;SDS011;59320;52.316;10.870;2024-02-21T04:26:45;23.67;;;11.23;;
70705;SDS011;59320;52.316;10.870;2024-02-21T04:29:14;19.90;;;9.73;;
70705;SDS011;59320;52.316;10.870;2024-02-21T04:31:41;16.00;;;10.55;;
70705;SDS011;59320;52.316;10.870;2024-02-21T04:34:08;22.63;;;10.90;;
70705;SDS011;59320;52.316;10.870;2024-02-21T04:36:35;20.85;;;10.88;;
70705;SDS011;59320;52.316;10.870;2024-02-21T04:39:02;20.55;;;11.07;;
70705;SDS011;59320;52.316;10.870;2024-02-21T04:41:29;22.85;;;11.00;;
70705;SDS011;59320;52.316;10.870;2024-02-21T04:43:58;19.67;;;10.88;;
70705;SDS011;59320;52.316;10.870;2024-02-21T04:46:25;18.30;;;11.15;;
70705;SDS011;59320;52.316;10.870;2024-02-21T04:48:52;18.70;;;10.52;;
70705;SDS011;59320;52.316;10.870;2024-02-21T04:51:20;22.13;;;12.05;;
70705;SDS011;59320;52.316;10.870;2024-02-21T04:53:48;19.25;;;10.15;;
70705;SDS011;59320;52.316;10.870;2024-02-21T04:56:15;18.52;;;10.70;;
70705;SDS011;59320;52.316;10.870;2024-02-21T04:58:44;19.23;;;10.05;;
70705;SDS011;59320;52.316;10.870;2024-02-21T05:01:13;20.30;;;10.80;;
70705;SDS011;59320;52.316;10.870;2024-02-21T05:03:40;17.63;;;10.60;;
70705;SDS011;59320;52.316;10.870;2024-02-21T05:06:07;17.92;;;9.95;;
70705;SDS011;59320;52.316;10.870;2024-02-21T05:08:35;20.55;;;10.65;;
70705;SDS011;59320;52.316;10.870;2024-02-21T05:11:02;22.95;;;10.82;;
70705;SDS011;59320;52.316;10.870;2024-02-21T05:13:30;21.80;;;10.27;;
70705;SDS011;59320;52.316;10.870;2024-02-21T05:15:57;18.08;;;9.57;;
70705;SDS011;59320;52.316;10.870;2024-02-21T05:18:28;19.33;;;10.35;;
70705;SDS011;59320;52.316;10.870;2024-02-21T05:20:55;21.60;;;9.85;;
70705;SDS011;59320;52.316;10.870;2024-02-21T05:23:22;20.38;;;10.77;;
70705;SDS011;59320;52.316;10.870;2024-02-21T05:25:50;19.55;;;9.70;;
70705;SDS011;59320;52.316;10.870;2024-02-21T05:28:17;17.65;;;9.80;;
70705;SDS011;59320;52.316;10.870;2024-02-21T05:30:45;17.15;;;9.48;;
70705;SDS011;59320;52.316;10.870;2024-02-21T05:33:12;18.17;;;9.43;;
70705;SDS011;59320;52.316;10.870;2024-02-21T05:35:48;17.25;;;9.27;;
70705;SDS011;59320;52.316;10.870;2024-02-21T05:38:15;17.08;;;10.30;;
70705;SDS011;59320;52.316;10.870;2024-02-21T05:40:42;19.35;;;9.20;;
70705;SDS011;59320;52.316;10.870;2024-02-21T05:43:10;17.55;;;9.57;;
70705;SDS011;59320;52.316;10.870;2024-02-21T05:45:37;18.08;;;9.45;;
70705;SDS011;59320;52.316;10.870;2024-02-21T05:48:05;18.40;;;9.20;;
70705;SDS011;59320;52.316;10.870;2024-02-21T05:50:32;17.40;;;9.02;;
70705;SDS011;59320;52.316;10.870;2024-02-21T05:53:01;17.17;;;9.05;;
70705;SDS011;59320;52.316;10.870;2024-02-21T05:55:29;17.55;;;9.88;;
70705;SDS011;59320;52.316;10.870;2024-02-21T05:57:56;17.38;;;9.35;;
70705;SDS011;59320;52.316;10.870;2024-02-21T06:00:24;17.42;;;9.32;;
70705;SDS011;59320;52.316;10.870;2024-02-21T06:02:51;15.52;;;8.52;;
70705;SDS011;59320;52.316;10.870;2024-02-21T06:05:19;14.38;;;8.50;;
70705;SDS011;59320;52.316;10.870;2024-02-21T06:07:46;15.43;;;9.00;;
70705;SDS011;59320;52.316;10.870;2024-02-21T06:10:15;17.67;;;9.85;;
70705;SDS011;59320;52.316;10.870;2024-02-21T06:12:43;16.17;;;9.05;;
70705;SDS011;59320;52.316;10.870;2024-02-21T06:15:10;18.38;;;9.82;;
70705;SDS011;59320;52.316;10.870;2024-02-21T06:17:37;16.63;;;9.45;;
70705;SDS011;59320;52.316;10.870;2024-02-21T06:20:05;18.33;;;10.45;;
70705;SDS011;59320;52.316;10.870;2024-02-21T06:22:34;14.88;;;9.02;;
70705;SDS011;59320;52.316;10.870;2024-02-21T06:25:01;18.25;;;9.75;;
70705;SDS011;59320;52.316;10.870;2024-02-21T06:27:30;19.88;;;10.43;;
70705;SDS011;59320;52.316;10.870;2024-02-21T06:29:57;18.35;;;10.02;;
70705;SDS011;59320;52.316;10.870;2024-02-21T06:32:24;21.60;;;9.85;;
70705;SDS011;59320;52.316;10.870;2024-02-21T06:34:51;16.73;;;9.82;;
70705;SDS011;59320;52.316;10.870;2024-02-21T06:37:19;19.15;;;10.00;;
70705;SDS011;59320;52.316;10.870;2024-02-21T06:39:46;20.95;;;10.77;;
70705;SDS011;59320;52.316;10.870;2024-02-21T06:42:14;16.50;;;9.52;;
70705;SDS011;59320;52.316;10.870;2024-02-21T06:44:43;19.60;;;10.77;;
70705;SDS011;59320;52.316;10.870;2024-02-21T06:47:11;17.58;;;10.32;;
70705;SDS011;59320;52.316;10.870;2024-02-21T06:49:38;20.33;;;10.10;;
70705;SDS011;59320;52.316;10.870;2024-02-21T06:52:06;18.15;;;9.38;;
70705;SDS011;59320;52.316;10.870;2024-02-21T06:54:33;18.70;;;10.30;;
70705;SDS011;59320;52.316;10.870;2024-02-21T06:57:00;16.90;;;9.32;;
70705;SDS011;59320;52.316;10.870;2024-02-21T06:59:28;18.77;;;10.43;;
70705;SDS011;59320;52.316;10.870;2024-02-21T07:01:57;17.45;;;10.13;;
70705;SDS011;59320;52.316;10.870;2024-02-21T07:04:26;14.77;;;9.02;;
70705;SDS011;59320;52.316;10.870;2024-02-21T07:06:54;15.10;;;9.57;;
70705;SDS011;59320;52.316;10.870;2024-02-21T07:09:21;17.02;;;9.32;;
70705;SDS011;59320;52.316;10.870;2024-02-21T07:11:49;20.70;;;10.13;;
70705;SDS011;59320;52.316;10.870;2024-02-21T07:14:16;17.80;;;9.48;;
70705;SDS011;59320;52.316;10.870;2024-02-21T07:16:44;17.13;;;8.73;;
70705;SDS011;59320;52.316;10.870;2024-02-21T07:19:13;18.15;;;10.07;;
70705;SDS011;59320;52.316;10.870;2024-02-21T07:21:40;18.92;;;9.57;;
70705;SDS011;59320;52.316;10.870;2024-02-21T07:24:07;14.23;;;9.52;;
70705;SDS011;59320;52.316;10.870;2024-02-21T07:26:35;16.88;;;9.88;;
70705;SDS011;59320;52.316;10.870;2024-02-21T07:29:02;14.07;;;8.32;;
70705;SDS011;59320;52.316;10.870;2024-02-21T07:31:30;17.45;;;8.60;;
70705;SDS011;59320;52.316;10.870;2024-02-21T07:33:57;16.13;;;9.20;;
70705;SDS011;59320;52.316;10.870;2024-02-21T07:36:27;15.05;;;8.57;;
70705;SDS011;59320;52.316;10.870;2024-02-21T07:38:55;17.13;;;9.10;;
70705;SDS011;59320;52.316;10.870;2024-02-21T07:41:23;17.10;;;8.23;;
70705;SDS011;59320;52.316;10.870;2024-02-21T07:43:50;17.25;;;9.38;;
70705;SDS011;59320;52.316;10.870;2024-02-21T07:46:18;18.00;;;9.15;;
70705;SDS011;59320;52.316;10.870;2024-02-21T07:48:45;12.40;;;8.30;;
70705;SDS011;59320;52.316;10.870;2024-02-21T07:51:14;17.63;;;9.73;;
70705;SDS011;59320;52.316;10.870;2024-02-21T07:53:44;14.60;;;9.45;;
70705;SDS011;59320;52.316;10.870;2024-02-21T07:56:12;16.38;;;9.20;;
70705;SDS011;59320;52.316;10.870;2024-02-21T07:58:40;15.80;;;8.85;;
70705;SDS011;59320;52.316;10.870;2024-02-21T08:01:07;14.68;;;8.43;;
70705;SDS011;59320;52.316;10.870;2024-02-21T08:03:36;16.48;;;8.00;;
70705;SDS011;59320;52.316;10.870;2024-02-21T08:06:03;16.00;;;8.68;;
70705;SDS011;59320;52.316;10.870;2024-02-21T08:08:31;19.92;;;9.07;;
70705;SDS011;59320;52.316;10.870;2024-02-21T08:11:00;17.70;;;8.73;;
70705;SDS011;59320;52.316;10.870;2024-02-21T08:13:27;14.68;;;7.88;;
70705;SDS011;59320;52.316;10.870;2024-02-21T08:15:55;17.70;;;8.95;;
70705;SDS011;59320;52.316;10.870;2024-02-21T08:18:22;16.77;;;8.77;;
70705;SDS011;59320;52.316;10.870;2024-02-21T08:20:49;16.65;;;8.70;;
70705;SDS011;59320;52.316;10.870;2024-02-21T08:23:16;14.43;;;7.68;;
70705;SDS011;59320;52.316;10.870;2024-02-21T08:25:46;17.10;;;8.35;;
70705;SDS011;59320;52.316;10.870;2024-02-21T08:28:16;14.88;;;7.93;;
70705;SDS011;59320;52.316;10.870;2024-02-21T08:30:43;15.90;;;7.47;;
70705;SDS011;59320;52.316;10.870;2024-02-21T08:33:13;13.60;;;7.50;;
70705;SDS011;59320;52.316;10.870;2024-02-21T08:35:41;17.85;;;8.07;;
70705;SDS011;59320;52.316;10.870;2024-02-21T08:38:09;17.23;;;7.60;;
70705;SDS011;59320;52.316;10.870;2024-02-21T08:40:36;12.85;;;7.60;;
70705;SDS011;59320;52.316;10.870;2024-02-21T08:43:03;18.70;;;7.80;;
70705;SDS011;59320;52.316;10.870;2024-02-21T08:45:32;11.80;;;7.30;;
70705;SDS011;59320;52.316;10.870;2024-02-21T08:47:59;11.75;;;7.80;;
70705;SDS011;59320;52.316;10.870;2024-02-21T08:50:27;12.35;;;7.75;;
70705;SDS011;59320;52.316;10.870;2024-02-21T08:52:54;16.90;;;6.90;;
70705;SDS011;59320;52.316;10.870;2024-02-21T08:55:21;17.60;;;7.72;;
70705;SDS011;59320;52.316;10.870;2024-02-21T08:57:49;13.23;;;7.03;;
70705;SDS011;59320;52.316;10.870;2024-02-21T09:00:17;13.63;;;7.10;;
70705;SDS011;59320;52.316;10.870;2024-02-21T09:02:51;15.57;;;7.25;;
70705;SDS011;59320;52.316;10.870;2024-02-21T09:05:20;15.15;;;7.35;;
70705;SDS011;59320;52.316;10.870;2024-02-21T09:07:47;15.80;;;7.47;;
70705;SDS011;59320;52.316;10.870;2024-02-21T09:10:15;13.43;;;6.95;;
70705;SDS011;59320;52.316;10.870;2024-02-21T09:12:42;11.05;;;6.50;;
70705;SDS011;59320;52.316;10.870;2024-02-21T09:15:10;16.13;;;7.75;;
70705;SDS011;59320;52.316;10.870;2024-02-21T09:17:37;15.27;;;8.10;;
70705;SDS011;59320;52.316;10.870;2024-02-21T09:20:08;15.35;;;7.38;;
70705;SDS011;59320;52.316;10.870;2024-02-21T09:22:37;14.00;;;7.72;;
70705;SDS011;59320;52.316;10.870;2024-02-21T09:25:05;12.70;;;7.45;;
70705;SDS011;59320;52.316;10.870;2024-02-21T09:27:35;16.52;;;8.30;;
70705;SDS011;59320;52.316;10.870;2024-02-21T09:30:02;20.92;;;7.57;;
70705;SDS011;59320;52.316;10.870;2024-02-21T09:32:30;15.50;;;7.13;;
70705;SDS011;59320;52.316;10.870;2024-02-21T09:34:58;11.45;;;7.00;;
70705;SDS011;59320;52.316;10.870;2024-02-21T09:37:28;12.57;;;7.38;;
70705;SDS011;59320;52.316;10.870;2024-02-21T09:39:55;12.75;;;7.15;;
70705;SDS011;59320;52.316;10.870;2024-02-21T09:42:24;14.38;;;7.00;;
70705;SDS011;59320;52.316;10.870;2024-02-21T09:45:03;14.68;;;6.47;;
70705;SDS011;59320;52.316;10.870;2024-02-21T09:47:40;14.20;;;6.18;;
70705;SDS011;59320;52.316;10.870;2024-02-21T09:50:13;14.77;;;7.00;;
70705;SDS011;59320;52.316;10.870;2024-02-21T09:52:43;13.52;;;6.43;;
70705;SDS011;59320;52.316;10.870;2024-02-21T09:55:11;16.10;;;6.22;;
70705;SDS011;59320;52.316;10.870;2024-02-21T09:57:39;12.32;;;6.07;;
70705;SDS011;59320;52.316;10.870;2024-02-21T10:00:07;9.38;;;5.22;;
70705;SDS011;59320;52.316;10.870;2024-02-21T10:02:38;13.00;;;5.95;;
70705;SDS011;59320;52.316;10.870;2024-02-21T10:05:06;10.27;;;5.50;;
70705;SDS011;59320;52.316;10.870;2024-02-21T10:07:34;10.90;;;5.80;;
70705;SDS011;59320;52.316;10.870;2024-02-21T10:10:03;9.23;;;5.00;;
70705;SDS011;59320;52.316;10.870;2024-02-21T10:12:31;7.05;;;4.10;;
70705;SDS011;59320;52.316;10.870;2024-02-21T10:15:01;11.15;;;4.78;;
70705;SDS011;59320;52.316;10.870;2024-02-21T10:17:29;14.35;;;4.72;;
70705;SDS011;59320;52.316;10.870;2024-02-21T10:20:06;8.43;;;3.83;;
70705;SDS011;59320;52.316;10.870;2024-02-21T10:22:35;7.40;;;3.65;;
70705;SDS011;59320;52.316;10.870;2024-02-21T10:25:10;12.27;;;3.97;;
70705;SDS011;59320;52.316;10.870;2024-02-21T10:27:38;7.15;;;3.50;;
70705;SDS011;59320;52.316;10.870;2024-02-21T10:30:13;6.55;;;3.53;;
70705;SDS011;59320;52.316;10.870;2024-02-21T10:32:48;8.25;;;3.92;;
70705;SDS011;59320;52.316;10.870;2024-02-21T10:35:25;11.05;;;3.75;;
70705;SDS011;59320;52.316;10.870;2024-02-21T10:37:54;10.95;;;4.25;;
70705;SDS011;59320;52.316;10.870;2024-02-21T10:40:24;4.70;;;3.10;;
70705;SDS011;59320;52.316;10.870;2024-02-21T10:42:55;11.25;;;4.43;;
70705;SDS011;59320;52.316;10.870;2024-02-21T10:45:29;8.07;;;3.95;;
70705;SDS011;59320;52.316;10.870;2024-02-21T10:48:01;8.38;;;3.60;;
70705;SDS011;59320;52.316;10.870;2024-02-21T10:50:36;6.05;;;3.40;;
70705;SDS011;59320;52.316;10.870;2024-02-21T10:53:24;7.85;;;4.60;;
70705;SDS011;59320;52.316;10.870;2024-02-21T10:56:06;7.43;;;3.95;;
70705;SDS011;59320;52.316;10.870;2024-02-21T10:58:39;8.30;;;3.88;;
70705;SDS011;59320;52.316;10.870;2024-02-21T11:01:08;7.05;;;4.30;;
70705;SDS011;59320;52.316;10.870;2024-02-21T11:03:38;7.68;;;3.97;;
70705;SDS011;59320;52.316;10.870;2024-02-21T11:06:06;7.88;;;3.50;;
70705;SDS011;59320;52.316;10.870;2024-02-21T11:08:34;7.53;;;3.42;;
70705;SDS011;59320;52.316;10.870;2024-02-21T11:11:01;9.23;;;4.15;;
70705;SDS011;59320;52.316;10.870;2024-02-21T11:13:32;7.28;;;3.70;;
70705;SDS011;59320;52.316;10.870;2024-02-21T11:16:08;8.63;;;3.80;;
70705;SDS011;59320;52.316;10.870;2024-02-21T11:18:37;10.65;;;4.10;;
70705;SDS011;59320;52.316;10.870;2024-02-21T11:21:04;8.55;;;3.53;;
70705;SDS011;59320;52.316;10.870;2024-02-21T11:23:32;10.88;;;3.92;;
70705;SDS011;59320;52.316;10.870;2024-02-21T11:26:06;5.68;;;2.78;;
70705;SDS011;59320;52.316;10.870;2024-02-21T11:28:34;9.75;;;3.35;;
70705;SDS011;59320;52.316;10.870;2024-02-21T11:31:09;7.53;;;3.20;;
70705;SDS011;59320;52.316;10.870;2024-02-21T11:33:40;8.10;;;3.50;;
70705;SDS011;59320;52.316;10.870;2024-02-21T11:36:09;8.48;;;3.92;;
70705;SDS011;59320;52.316;10.870;2024-02-21T11:38:36;6.68;;;3.30;;
70705;SDS011;59320;52.316;10.870;2024-02-21T11:41:03;7.00;;;3.53;;
70705;SDS011;59320;52.316;10.870;2024-02-21T11:43:37;8.93;;;3.38;;
70705;SDS011;59320;52.316;10.870;2024-02-21T11:46:04;7.82;;;3.45;;
70705;SDS011;59320;52.316;10.870;2024-02-21T11:48:33;6.40;;;2.90;;
70705;SDS011;59320;52.316;10.870;2024-02-21T11:51:01;7.40;;;3.00;;
70705;SDS011;59320;52.316;10.870;2024-02-21T11:53:29;7.93;;;2.95;;
70705;SDS011;59320;52.316;10.870;2024-02-21T11:55:58;9.02;;;3.00;;
70705;SDS011;59320;52.316;10.870;2024-02-21T11:58:25;9.05;;;2.90;;
70705;SDS011;59320;52.316;10.870;2024-02-21T12:00:54;8.60;;;3.50;;
70705;SDS011;59320;52.316;10.870;2024-02-21T12:03:21;8.60;;;3.70;;
70705;SDS011;59320;52.316;10.870;2024-02-21T12:05:49;8.60;;;3.03;;
70705;SDS011;59320;52.316;10.870;2024-02-21T12:08:16;7.43;;;3.58;;
70705;SDS011;59320;52.316;10.870;2024-02-21T12:10:43;6.55;;;3.15;;
70705;SDS011;59320;52.316;10.870;2024-02-21T12:13:16;11.80;;;4.30;;
70705;SDS011;59320;52.316;10.870;2024-02-21T12:15:47;11.15;;;4.00;;
70705;SDS011;59320;52.316;10.870;2024-02-21T12:18:16;7.57;;;4.00;;
70705;SDS011;59320;52.316;10.870;2024-02-21T12:20:43;8.88;;;3.78;;
70705;SDS011;59320;52.316;10.870;2024-02-21T12:23:14;8.45;;;3.80;;
70705;SDS011;59320;52.316;10.870;2024-02-21T12:25:41;8.10;;;3.90;;
70705;SDS011;59320;52.316;10.870;2024-02-21T12:28:09;6.68;;;3.63;;
70705;SDS011;59320;52.316;10.870;2024-02-21T12:30:37;12.20;;;3.63;;
70705;SDS011;59320;52.316;10.870;2024-02-21T12:33:05;7.57;;;3.47;;
70705;SDS011;59320;52.316;10.870;2024-02-21T12:35:34;8.95;;;3.50;;
70705;SDS011;59320;52.316;10.870;2024-02-21T12:38:02;8.02;;;3.45;;
70705;SDS011;59320;52.316;10.870;2024-02-21T12:40:29;6.22;;;3.20;;
70705;SDS011;59320;52.316;10.870;2024-02-21T12:42:58;9.25;;;3.80;;
70705;SDS011;59320;52.316;10.870;2024-02-21T12:45:27;6.60;;;3.38;;
70705;SDS011;59320;52.316;10.870;2024-02-21T12:47:54;8.52;;;3.42;;
70705;SDS011;59320;52.316;10.870;2024-02-21T12:50:23;8.13;;;3.28;;
70705;SDS011;59320;52.316;10.870;2024-02-21T12:52:54;7.70;;;3.30;;
70705;SDS011;59320;52.316;10.870;2024-02-21T12:55:21;7.82;;;3.55;;
